sensor_id;sensor_type;location;lat;lon;timestamp;pressure;altitude;pressure_sealevel;temperature;humidity
18678;BME280;9469;51.114;13.914;2023-08-07T00:04:18;97552.44;;;14.83;100.00
18678;BME280;9469;51.114;13.914;2023-08-07T00:09:24;97552.03;;;14.81;100.00
18678;BME280;9469;51.114;13.914;2023-08-07T00:14:31;97558.28;;;14.88;100.00
18678;BME280;9469;51.114;13.914;2023-08-07T00:19:37;97550.00;;;14.74;100.00
18678;BME280;9469;51.114;13.914;2023-08-07T00:24:42;97562.31;;;14.79;100.00
18678;BME280;9469;51.114;13.914;2023-08-07T00:29:50;97560.25;;;14.91;100.00
18678;BME280;9469;51.114;13.914;2023-08-07T00:34:56;97561.25;;;14.83;100.00
18678;BME280;9469;51.114;13.914;2023-08-07T00:40:01;97555.13;;;14.83;100.00
18678;BME280;9469;51.114;13.914;2023-08-07T00:45:10;97562.13;;;14.91;100.00
18678;BME280;9469;51.114;13.914;2023-08-07T00:50:16;97555.47;;;14.81;100.00
18678;BME280;9469;51.114;13.914;2023-08-07T00:55:23;97557.72;;;14.79;100.00
18678;BME280;9469;51.114;13.914;2023-08-07T01:00:36;97566.47;;;14.76;100.00
18678;BME280;9469;51.114;13.914;2023-08-07T01:05:47;97567.06;;;15.08;100.00
18678;BME280;9469;51.114;13.914;2023-08-07T01:11:12;97553.69;;;14.89;100.00
18678;BME280;9469;51.114;13.914;2023-08-07T01:16:30;97554.91;;;14.72;100.00
18678;BME280;9469;51.114;13.914;2023-08-07T01:21:37;97553.38;;;14.71;100.00
18678;BME280;9469;51.114;13.914;2023-08-07T01:26:48;97551.75;;;14.67;100.00
18678;BME280;9469;51.114;13.914;2023-08-07T01:31:56;97547.44;;;14.81;100.00
18678;BME280;9469;51.114;13.914;2023-08-07T01:37:03;97543.38;;;14.68;100.00
18678;BME280;9469;51.114;13.914;2023-08-07T01:42:14;97536.47;;;14.67;100.00
18678;BME280;9469;51.114;13.914;2023-08-07T01:47:19;97544.84;;;14.66;100.00
18678;BME280;9469;51.114;13.914;2023-08-07T01:52:25;97565.41;;;14.62;100.00
18678;BME280;9469;51.114;13.914;2023-08-07T01:57:35;97571.97;;;14.64;100.00
18678;BME280;9469;51.114;13.914;2023-08-07T02:02:40;97569.44;;;14.71;100.00
18678;BME280;9469;51.114;13.914;2023-08-07T02:07:47;97577.75;;;14.66;100.00
18678;BME280;9469;51.114;13.914;2023-08-07T02:12:58;97563.25;;;14.67;100.00
18678;BME280;9469;51.114;13.914;2023-08-07T02:18:04;97571.97;;;14.83;100.00
18678;BME280;9469;51.114;13.914;2023-08-07T02:23:09;97572.25;;;14.78;100.00
18678;BME280;9469;51.114;13.914;2023-08-07T02:28:21;97581.19;;;14.67;100.00
18678;BME280;9469;51.114;13.914;2023-08-07T02:33:26;97570.00;;;14.80;100.00
18678;BME280;9469;51.114;13.914;2023-08-07T02:38:34;97577.03;;;14.69;100.00
18678;BME280;9469;51.114;13.914;2023-08-07T02:43:42;97591.25;;;14.73;100.00
18678;BME280;9469;51.114;13.914;2023-08-07T02:48:48;97602.25;;;14.68;100.00
18678;BME280;9469;51.114;13.914;2023-08-07T02:53:55;97594.38;;;14.56;100.00
18678;BME280;9469;51.114;13.914;2023-08-07T02:59:07;97583.38;;;14.80;100.00
18678;BME280;9469;51.114;13.914;2023-08-07T03:04:12;97583.16;;;14.89;100.00
18678;BME280;9469;51.114;13.914;2023-08-07T03:09:20;97586.19;;;14.87;100.00
18678;BME280;9469;51.114;13.914;2023-08-07T03:14:28;97632.75;;;14.64;100.00
18678;BME280;9469;51.114;13.914;2023-08-07T03:19:34;97616.88;;;14.36;100.00
18678;BME280;9469;51.114;13.914;2023-08-07T03:24:39;97624.16;;;14.20;100.00
18678;BME280;9469;51.114;13.914;2023-08-07T03:29:48;97633.56;;;14.14;100.00
18678;BME280;9469;51.114;13.914;2023-08-07T03:34:53;97652.56;;;14.09;100.00
18678;BME280;9469;51.114;13.914;2023-08-07T03:40:13;97655.22;;;13.93;100.00
18678;BME280;9469;51.114;13.914;2023-08-07T03:45:21;97659.13;;;13.96;100.00
18678;BME280;9469;51.114;13.914;2023-08-07T03:50:26;97669.66;;;14.04;100.00
18678;BME280;9469;51.114;13.914;2023-08-07T03:55:32;97671.72;;;14.11;100.00
18678;BME280;9469;51.114;13.914;2023-08-07T04:00:41;97682.06;;;13.97;100.00
18678;BME280;9469;51.114;13.914;2023-08-07T04:05:52;97676.47;;;14.02;100.00
18678;BME280;9469;51.114;13.914;2023-08-07T04:10:59;97677.31;;;14.06;100.00
18678;BME280;9469;51.114;13.914;2023-08-07T04:16:08;97678.16;;;14.10;100.00
18678;BME280;9469;51.114;13.914;2023-08-07T04:21:13;97692.16;;;14.03;100.00
18678;BME280;9469;51.114;13.914;2023-08-07T04:26:25;97691.59;;;14.29;100.00
18678;BME280;9469;51.114;13.914;2023-08-07T04:31:38;97698.06;;;14.28;100.00
18678;BME280;9469;51.114;13.914;2023-08-07T04:36:44;97691.94;;;14.27;100.00
18678;BME280;9469;51.114;13.914;2023-08-07T04:41:49;97703.88;;;14.30;100.00
18678;BME280;9469;51.114;13.914;2023-08-07T04:47:00;97703.78;;;14.42;100.00
18678;BME280;9469;51.114;13.914;2023-08-07T04:52:06;97711.63;;;14.35;100.00
18678;BME280;9469;51.114;13.914;2023-08-07T04:57:26;97716.59;;;14.52;100.00
18678;BME280;9469;51.114;13.914;2023-08-07T05:02:34;97717.28;;;14.65;100.00
18678;BME280;9469;51.114;13.914;2023-08-07T05:07:39;97711.28;;;14.71;100.00
18678;BME280;9469;51.114;13.914;2023-08-07T05:12:45;97728.88;;;14.72;100.00
18678;BME280;9469;51.114;13.914;2023-08-07T05:18:01;97719.22;;;14.83;100.00
18678;BME280;9469;51.114;13.914;2023-08-07T05:23:08;97719.41;;;14.94;100.00
18678;BME280;9469;51.114;13.914;2023-08-07T05:28:14;97729.75;;;14.76;100.00
18678;BME280;9469;51.114;13.914;2023-08-07T05:33:22;97736.53;;;14.89;100.00
18678;BME280;9469;51.114;13.914;2023-08-07T05:38:33;97735.03;;;14.73;100.00
18678;BME280;9469;51.114;13.914;2023-08-07T05:43:43;97748.34;;;14.88;100.00
18678;BME280;9469;51.114;13.914;2023-08-07T05:48:51;97746.56;;;14.92;100.00
18678;BME280;9469;51.114;13.914;2023-08-07T05:53:56;97753.13;;;14.79;100.00
18678;BME280;9469;51.114;13.914;2023-08-07T05:59:04;97755.84;;;14.98;100.00
18678;BME280;9469;51.114;13.914;2023-08-07T06:04:12;97762.00;;;14.99;100.00
18678;BME280;9469;51.114;13.914;2023-08-07T06:09:21;97775.47;;;15.22;100.00
18678;BME280;9469;51.114;13.914;2023-08-07T06:14:26;97776.00;;;15.12;100.00
18678;BME280;9469;51.114;13.914;2023-08-07T06:19:38;97791.75;;;15.32;100.00
18678;BME280;9469;51.114;13.914;2023-08-07T06:24:45;97798.03;;;15.40;100.00
18678;BME280;9469;51.114;13.914;2023-08-07T06:29:53;97801.84;;;15.20;100.00
18678;BME280;9469;51.114;13.914;2023-08-07T06:35:10;97805.50;;;15.31;100.00
18678;BME280;9469;51.114;13.914;2023-08-07T06:40:37;97814.50;;;15.23;100.00
18678;BME280;9469;51.114;13.914;2023-08-07T06:45:42;97818.09;;;15.46;100.00
18678;BME280;9469;51.114;13.914;2023-08-07T06:50:51;97817.63;;;15.63;100.00
18678;BME280;9469;51.114;13.914;2023-08-07T06:55:57;97820.06;;;15.49;100.00
18678;BME280;9469;51.114;13.914;2023-08-07T07:01:04;97825.91;;;15.54;100.00
18678;BME280;9469;51.114;13.914;2023-08-07T07:06:12;97837.69;;;16.11;100.00
18678;BME280;9469;51.114;13.914;2023-08-07T07:11:18;97842.78;;;15.97;100.00
18678;BME280;9469;51.114;13.914;2023-08-07T07:16:24;97829.41;;;16.19;100.00
18678;BME280;9469;51.114;13.914;2023-08-07T07:21:36;97838.50;;;16.57;100.00
18678;BME280;9469;51.114;13.914;2023-08-07T07:26:47;97838.53;;;16.60;100.00
18678;BME280;9469;51.114;13.914;2023-08-07T07:32:03;97852.28;;;16.55;100.00
18678;BME280;9469;51.114;13.914;2023-08-07T07:43:03;97854.63;;;16.37;100.00
18678;BME280;9469;51.114;13.914;2023-08-07T07:48:12;97880.00;;;15.79;100.00
18678;BME280;9469;51.114;13.914;2023-08-07T07:53:27;97885.41;;;16.21;100.00
18678;BME280;9469;51.114;13.914;2023-08-07T07:58:46;97883.41;;;16.82;100.00
18678;BME280;9469;51.114;13.914;2023-08-07T08:03:54;97881.50;;;17.35;100.00
18678;BME280;9469;51.114;13.914;2023-08-07T08:09:04;97892.94;;;17.55;100.00
18678;BME280;9469;51.114;13.914;2023-08-07T08:14:57;97890.69;;;17.60;100.00
18678;BME280;9469;51.114;13.914;2023-08-07T08:20:09;97896.28;;;17.22;100.00
18678;BME280;9469;51.114;13.914;2023-08-07T08:25:19;97904.28;;;17.45;100.00
18678;BME280;9469;51.114;13.914;2023-08-07T08:30:31;97913.34;;;17.59;100.00
18678;BME280;9469;51.114;13.914;2023-08-07T08:35:36;97918.84;;;17.44;100.00
18678;BME280;9469;51.114;13.914;2023-08-07T08:40:42;97927.56;;;17.60;100.00
18678;BME280;9469;51.114;13.914;2023-08-07T08:45:52;97927.22;;;18.28;100.00
18678;BME280;9469;51.114;13.914;2023-08-07T08:50:58;97931.78;;;18.57;100.00
18678;BME280;9469;51.114;13.914;2023-08-07T08:56:21;97933.09;;;17.70;100.00
18678;BME280;9469;51.114;13.914;2023-08-07T09:01:54;97943.19;;;18.10;100.00
18678;BME280;9469;51.114;13.914;2023-08-07T09:07:07;97928.72;;;18.58;100.00
18678;BME280;9469;51.114;13.914;2023-08-07T09:12:20;97928.47;;;18.74;100.00
18678;BME280;9469;51.114;13.914;2023-08-07T09:17:54;97948.88;;;18.05;100.00
18678;BME280;9469;51.114;13.914;2023-08-07T09:23:00;97953.03;;;17.69;100.00
18678;BME280;9469;51.114;13.914;2023-08-07T09:28:06;97952.53;;;17.34;100.00
18678;BME280;9469;51.114;13.914;2023-08-07T09:33:14;97949.44;;;17.32;100.00
18678;BME280;9469;51.114;13.914;2023-08-07T09:38:22;97947.13;;;18.20;100.00
18678;BME280;9469;51.114;13.914;2023-08-07T09:43:28;97948.75;;;17.95;100.00
18678;BME280;9469;51.114;13.914;2023-08-07T09:48:42;97958.22;;;17.81;100.00
18678;BME280;9469;51.114;13.914;2023-08-07T09:53:49;97941.66;;;18.86;99.74
18678;BME280;9469;51.114;13.914;2023-08-07T09:58:55;97935.56;;;18.49;99.37
18678;BME280;9469;51.114;13.914;2023-08-07T10:04:05;97940.31;;;18.29;100.00
18678;BME280;9469;51.114;13.914;2023-08-07T10:09:13;97950.66;;;17.64;100.00
18678;BME280;9469;51.114;13.914;2023-08-07T10:14:20;97954.63;;;17.74;100.00
18678;BME280;9469;51.114;13.914;2023-08-07T10:19:30;97953.69;;;18.52;100.00
18678;BME280;9469;51.114;13.914;2023-08-07T10:24:39;97958.13;;;18.04;100.00
18678;BME280;9469;51.114;13.914;2023-08-07T10:29:46;97957.50;;;17.58;100.00
18678;BME280;9469;51.114;13.914;2023-08-07T10:34:57;97971.97;;;17.01;100.00
18678;BME280;9469;51.114;13.914;2023-08-07T10:40:06;97960.53;;;17.83;100.00
18678;BME280;9469;51.114;13.914;2023-08-07T10:45:17;97975.94;;;17.86;100.00
18678;BME280;9469;51.114;13.914;2023-08-07T10:50:32;97973.00;;;17.42;100.00
18678;BME280;9469;51.114;13.914;2023-08-07T10:55:47;97978.38;;;17.42;100.00
18678;BME280;9469;51.114;13.914;2023-08-07T11:01:19;97970.31;;;18.61;100.00
18678;BME280;9469;51.114;13.914;2023-08-07T11:06:29;97974.34;;;18.11;100.00
18678;BME280;9469;51.114;13.914;2023-08-07T11:11:37;97976.47;;;17.69;100.00
18678;BME280;9469;51.114;13.914;2023-08-07T11:16:43;97996.19;;;17.50;100.00
18678;BME280;9469;51.114;13.914;2023-08-07T11:21:53;97986.41;;;18.24;100.00
18678;BME280;9469;51.114;13.914;2023-08-07T11:27:01;97968.38;;;19.02;100.00
18678;BME280;9469;51.114;13.914;2023-08-07T11:32:09;97976.66;;;18.46;100.00
18678;BME280;9469;51.114;13.914;2023-08-07T11:37:20;97981.81;;;17.95;100.00
18678;BME280;9469;51.114;13.914;2023-08-07T11:42:27;98002.63;;;17.68;100.00
18678;BME280;9469;51.114;13.914;2023-08-07T11:47:35;97994.59;;;18.02;100.00
18678;BME280;9469;51.114;13.914;2023-08-07T11:52:44;98000.38;;;18.37;100.00
18678;BME280;9469;51.114;13.914;2023-08-07T11:57:50;98013.44;;;17.75;100.00
18678;BME280;9469;51.114;13.914;2023-08-07T12:02:55;98025.03;;;17.08;100.00
18678;BME280;9469;51.114;13.914;2023-08-07T12:08:07;98021.34;;;16.71;100.00
18678;BME280;9469;51.114;13.914;2023-08-07T12:13:14;98014.53;;;16.77;100.00
18678;BME280;9469;51.114;13.914;2023-08-07T12:18:19;98034.53;;;16.79;100.00
18678;BME280;9469;51.114;13.914;2023-08-07T12:23:28;98032.16;;;17.19;100.00
18678;BME280;9469;51.114;13.914;2023-08-07T12:28:34;98015.47;;;17.56;100.00
18678;BME280;9469;51.114;13.914;2023-08-07T12:33:40;98016.13;;;18.02;100.00
18678;BME280;9469;51.114;13.914;2023-08-07T12:38:49;98018.69;;;17.91;100.00
18678;BME280;9469;51.114;13.914;2023-08-07T12:43:55;98029.34;;;17.84;100.00
18678;BME280;9469;51.114;13.914;2023-08-07T12:49:01;98024.38;;;17.60;100.00
18678;BME280;9469;51.114;13.914;2023-08-07T12:54:10;98040.34;;;17.75;100.00
18678;BME280;9469;51.114;13.914;2023-08-07T12:59:15;98047.84;;;17.89;100.00
18678;BME280;9469;51.114;13.914;2023-08-07T13:04:21;98023.06;;;18.66;100.00
18678;BME280;9469;51.114;13.914;2023-08-07T13:09:30;98028.81;;;19.04;100.00
18678;BME280;9469;51.114;13.914;2023-08-07T13:14:43;98040.66;;;18.26;100.00
18678;BME280;9469;51.114;13.914;2023-08-07T13:20:00;98065.69;;;18.01;100.00
18678;BME280;9469;51.114;13.914;2023-08-07T13:25:13;98066.91;;;17.32;100.00
18678;BME280;9469;51.114;13.914;2023-08-07T13:30:18;98061.00;;;17.45;100.00
18678;BME280;9469;51.114;13.914;2023-08-07T13:35:24;98059.84;;;17.95;100.00
18678;BME280;9469;51.114;13.914;2023-08-07T13:40:35;98064.31;;;18.14;100.00
18678;BME280;9469;51.114;13.914;2023-08-07T13:45:42;98079.00;;;17.64;100.00
18678;BME280;9469;51.114;13.914;2023-08-07T13:50:49;98089.41;;;17.46;100.00
18678;BME280;9469;51.114;13.914;2023-08-07T13:55:56;98114.09;;;17.06;100.00
18678;BME280;9469;51.114;13.914;2023-08-07T14:01:02;98110.72;;;16.71;100.00
18678;BME280;9469;51.114;13.914;2023-08-07T14:06:10;98125.50;;;16.27;100.00
18678;BME280;9469;51.114;13.914;2023-08-07T14:11:20;98127.28;;;16.38;100.00
18678;BME280;9469;51.114;13.914;2023-08-07T14:16:29;98152.72;;;16.44;100.00
18678;BME280;9469;51.114;13.914;2023-08-07T14:21:44;98165.19;;;16.02;100.00
18678;BME280;9469;51.114;13.914;2023-08-07T14:26:52;98178.69;;;15.90;100.00
18678;BME280;9469;51.114;13.914;2023-08-07T14:31:57;98181.13;;;15.64;100.00
18678;BME280;9469;51.114;13.914;2023-08-07T14:37:03;98173.56;;;15.69;100.00
18678;BME280;9469;51.114;13.914;2023-08-07T14:42:12;98174.88;;;15.75;100.00
18678;BME280;9469;51.114;13.914;2023-08-07T14:47:17;98164.28;;;16.29;100.00
18678;BME280;9469;51.114;13.914;2023-08-07T14:52:23;98174.09;;;16.57;100.00
18678;BME280;9469;51.114;13.914;2023-08-07T14:57:34;98166.56;;;16.46;100.00
18678;BME280;9469;51.114;13.914;2023-08-07T15:02:39;98169.66;;;16.64;100.00
18678;BME280;9469;51.114;13.914;2023-08-07T15:07:45;98172.09;;;16.54;100.00
18678;BME280;9469;51.114;13.914;2023-08-07T15:12:55;98170.91;;;16.89;100.00
18678;BME280;9469;51.114;13.914;2023-08-07T15:18:01;98177.88;;;16.71;100.00
18678;BME280;9469;51.114;13.914;2023-08-07T15:23:08;98168.03;;;16.98;100.00
18678;BME280;9469;51.114;13.914;2023-08-07T15:28:16;98164.72;;;16.66;100.00
18678;BME280;9469;51.114;13.914;2023-08-07T15:33:22;98174.94;;;16.61;100.00
18678;BME280;9469;51.114;13.914;2023-08-07T15:38:27;98181.47;;;16.79;100.00
18678;BME280;9469;51.114;13.914;2023-08-07T15:43:35;98181.31;;;16.53;100.00
18678;BME280;9469;51.114;13.914;2023-08-07T15:48:44;98169.97;;;16.43;100.00
18678;BME280;9469;51.114;13.914;2023-08-07T15:53:50;98187.72;;;16.32;100.00
18678;BME280;9469;51.114;13.914;2023-08-07T15:58:58;98200.38;;;16.32;100.00
18678;BME280;9469;51.114;13.914;2023-08-07T16:04:03;98214.25;;;16.18;100.00
18678;BME280;9469;51.114;13.914;2023-08-07T16:09:09;98228.69;;;15.83;100.00
18678;BME280;9469;51.114;13.914;2023-08-07T16:14:17;98226.56;;;15.60;100.00
18678;BME280;9469;51.114;13.914;2023-08-07T16:19:25;98253.66;;;15.55;100.00
18678;BME280;9469;51.114;13.914;2023-08-07T16:24:33;98258.53;;;15.38;100.00
18678;BME280;9469;51.114;13.914;2023-08-07T16:29:41;98267.59;;;15.33;100.00
18678;BME280;9469;51.114;13.914;2023-08-07T16:34:46;98257.19;;;15.44;100.00
18678;BME280;9469;51.114;13.914;2023-08-07T16:39:51;98268.88;;;15.39;100.00
18678;BME280;9469;51.114;13.914;2023-08-07T16:44:59;98277.25;;;15.50;100.00
18678;BME280;9469;51.114;13.914;2023-08-07T16:50:07;98285.00;;;15.67;100.00
18678;BME280;9469;51.114;13.914;2023-08-07T16:55:15;98275.88;;;15.56;100.00
18678;BME280;9469;51.114;13.914;2023-08-07T17:00:23;98276.56;;;15.53;100.00
18678;BME280;9469;51.114;13.914;2023-08-07T17:05:31;98291.72;;;15.21;100.00
18678;BME280;9469;51.114;13.914;2023-08-07T17:10:37;98306.13;;;15.29;100.00
18678;BME280;9469;51.114;13.914;2023-08-07T17:15:45;98321.28;;;15.37;100.00
18678;BME280;9469;51.114;13.914;2023-08-07T17:20:51;98298.47;;;15.03;100.00
18678;BME280;9469;51.114;13.914;2023-08-07T17:25:58;98296.31;;;15.21;100.00
18678;BME280;9469;51.114;13.914;2023-08-07T17:31:07;98306.28;;;15.36;100.00
18678;BME280;9469;51.114;13.914;2023-08-07T17:36:15;98301.16;;;15.03;100.00
18678;BME280;9469;51.114;13.914;2023-08-07T17:41:21;98306.00;;;15.25;100.00
18678;BME280;9469;51.114;13.914;2023-08-07T17:46:31;98328.56;;;15.24;100.00
18678;BME280;9469;51.114;13.914;2023-08-07T17:51:37;98333.81;;;15.08;100.00
18678;BME280;9469;51.114;13.914;2023-08-07T17:56:42;98346.69;;;14.91;100.00
18678;BME280;9469;51.114;13.914;2023-08-07T18:01:54;98352.13;;;15.06;100.00
18678;BME280;9469;51.114;13.914;2023-08-07T18:06:59;98348.13;;;15.13;100.00
18678;BME280;9469;51.114;13.914;2023-08-07T18:12:06;98356.84;;;14.97;100.00
18678;BME280;9469;51.114;13.914;2023-08-07T18:17:14;98346.81;;;14.94;100.00
18678;BME280;9469;51.114;13.914;2023-08-07T18:22:19;98361.97;;;15.02;100.00
18678;BME280;9469;51.114;13.914;2023-08-07T18:27:27;98369.81;;;14.83;100.00
18678;BME280;9469;51.114;13.914;2023-08-07T18:32:36;98366.44;;;14.86;100.00
18678;BME280;9469;51.114;13.914;2023-08-07T18:37:43;98379.94;;;14.66;100.00
18678;BME280;9469;51.114;13.914;2023-08-07T18:42:51;98383.75;;;14.65;100.00
18678;BME280;9469;51.114;13.914;2023-08-07T18:47:59;98385.28;;;14.66;100.00
18678;BME280;9469;51.114;13.914;2023-08-07T18:53:07;98397.66;;;14.46;100.00
18678;BME280;9469;51.114;13.914;2023-08-07T18:58:13;98409.25;;;14.50;100.00
18678;BME280;9469;51.114;13.914;2023-08-07T19:03:21;98428.69;;;14.26;100.00
18678;BME280;9469;51.114;13.914;2023-08-07T19:08:27;98417.03;;;14.31;100.00
18678;BME280;9469;51.114;13.914;2023-08-07T19:13:32;98436.91;;;14.54;100.00
18678;BME280;9469;51.114;13.914;2023-08-07T19:18:42;98438.88;;;14.33;100.00
18678;BME280;9469;51.114;13.914;2023-08-07T19:23:49;98435.88;;;14.34;100.00
18678;BME280;9469;51.114;13.914;2023-08-07T19:28:57;98427.78;;;14.22;100.00
18678;BME280;9469;51.114;13.914;2023-08-07T19:34:05;98439.72;;;14.25;100.00
18678;BME280;9469;51.114;13.914;2023-08-07T19:39:13;98442.22;;;14.30;100.00
18678;BME280;9469;51.114;13.914;2023-08-07T19:44:19;98443.00;;;14.30;100.00
18678;BME280;9469;51.114;13.914;2023-08-07T19:49:27;98440.50;;;14.25;100.00
18678;BME280;9469;51.114;13.914;2023-08-07T19:54:32;98445.84;;;14.25;100.00
18678;BME280;9469;51.114;13.914;2023-08-07T19:59:38;98450.75;;;14.23;100.00
18678;BME280;9469;51.114;13.914;2023-08-07T20:04:47;98451.81;;;14.31;100.00
18678;BME280;9469;51.114;13.914;2023-08-07T20:09:52;98453.53;;;14.27;100.00
18678;BME280;9469;51.114;13.914;2023-08-07T20:14:57;98452.00;;;14.26;100.00
18678;BME280;9469;51.114;13.914;2023-08-07T20:20:06;98456.44;;;14.22;100.00
18678;BME280;9469;51.114;13.914;2023-08-07T20:25:15;98459.97;;;14.14;100.00
18678;BME280;9469;51.114;13.914;2023-08-07T20:30:20;98468.44;;;14.16;100.00
18678;BME280;9469;51.114;13.914;2023-08-07T20:35:29;98477.34;;;14.08;100.00
18678;BME280;9469;51.114;13.914;2023-08-07T20:40:34;98487.22;;;14.28;100.00
18678;BME280;9469;51.114;13.914;2023-08-07T20:45:40;98490.97;;;14.15;100.00
18678;BME280;9469;51.114;13.914;2023-08-07T20:50:50;98495.53;;;14.14;100.00
18678;BME280;9469;51.114;13.914;2023-08-07T20:55:55;98496.44;;;14.18;100.00
18678;BME280;9469;51.114;13.914;2023-08-07T21:01:00;98500.22;;;14.17;100.00
18678;BME280;9469;51.114;13.914;2023-08-07T21:06:09;98498.84;;;14.32;100.00
18678;BME280;9469;51.114;13.914;2023-08-07T21:11:15;98508.25;;;14.17;100.00
18678;BME280;9469;51.114;13.914;2023-08-07T21:16:20;98506.28;;;14.06;100.00
18678;BME280;9469;51.114;13.914;2023-08-07T21:21:28;98507.00;;;14.15;100.00
18678;BME280;9469;51.114;13.914;2023-08-07T21:26:34;98507.56;;;14.20;100.00
18678;BME280;9469;51.114;13.914;2023-08-07T21:31:39;98504.34;;;14.15;100.00
18678;BME280;9469;51.114;13.914;2023-08-07T21:36:47;98504.44;;;14.18;100.00
18678;BME280;9469;51.114;13.914;2023-08-07T21:41:53;98507.28;;;14.01;100.00
18678;BME280;9469;51.114;13.914;2023-08-07T21:46:58;98509.22;;;14.13;100.00
18678;BME280;9469;51.114;13.914;2023-08-07T21:52:08;98507.81;;;14.15;100.00
18678;BME280;9469;51.114;13.914;2023-08-07T21:57:14;98508.06;;;14.02;100.00
18678;BME280;9469;51.114;13.914;2023-08-07T22:02:19;98511.75;;;14.09;100.00
18678;BME280;9469;51.114;13.914;2023-08-07T22:07:27;98513.72;;;14.00;100.00
18678;BME280;9469;51.114;13.914;2023-08-07T22:12:34;98519.41;;;13.99;100.00
18678;BME280;9469;51.114;13.914;2023-08-07T22:17:40;98528.41;;;13.94;100.00
18678;BME280;9469;51.114;13.914;2023-08-07T22:22:48;98525.88;;;13.77;100.00
18678;BME280;9469;51.114;13.914;2023-08-07T22:27:54;98513.06;;;13.83;100.00
18678;BME280;9469;51.114;13.914;2023-08-07T22:33:00;98521.28;;;13.78;100.00
18678;BME280;9469;51.114;13.914;2023-08-07T22:38:08;98514.75;;;13.66;100.00
18678;BME280;9469;51.114;13.914;2023-08-07T22:43:13;98509.09;;;13.68;100.00
18678;BME280;9469;51.114;13.914;2023-08-07T22:48:18;98515.53;;;13.67;100.00
18678;BME280;9469;51.114;13.914;2023-08-07T22:53:26;98517.72;;;13.44;100.00
18678;BME280;9469;51.114;13.914;2023-08-07T22:58:31;98521.31;;;13.48;100.00
18678;BME280;9469;51.114;13.914;2023-08-07T23:03:37;98530.63;;;13.42;100.00
18678;BME280;9469;51.114;13.914;2023-08-07T23:08:46;98518.16;;;13.46;100.00
18678;BME280;9469;51.114;13.914;2023-08-07T23:13:52;98527.78;;;13.39;100.00
18678;BME280;9469;51.114;13.914;2023-08-07T23:18:57;98532.91;;;13.23;100.00
18678;BME280;9469;51.114;13.914;2023-08-07T23:24:05;98525.66;;;13.24;100.00
18678;BME280;9469;51.114;13.914;2023-08-07T23:29:11;98519.53;;;13.32;100.00
18678;BME280;9469;51.114;13.914;2023-08-07T23:34:19;98523.91;;;13.28;100.00
18678;BME280;9469;51.114;13.914;2023-08-07T23:39:27;98525.50;;;13.29;100.00
18678;BME280;9469;51.114;13.914;2023-08-07T23:44:32;98523.91;;;13.28;100.00
18678;BME280;9469;51.114;13.914;2023-08-07T23:49:37;98532.91;;;13.23;100.00
18678;BME280;9469;51.114;13.914;2023-08-07T23:54:45;98525.66;;;13.24;100.00
18678;BME280;9469;51.114;13.914;2023-08-07T23:59:52;98531.69;;;13.04;100.00
